^^
NorthLandsweather Station Historical Data
Daily Summary for February 12, 2019 Units:  English    Metric   Both
Daily Weekly Monthly Yearly Custom
  High: Low: Average:
Temperature: 23.8 °F 18.5 °F 21 °F
Dew Point: 20.8 °F 15.3 °F 18.2 °F
Humidity: 91% 86% 89%
Wind Speed: 9.2mph 0.0mph 2.8mph
Wind Gust: 4.6mph - -
Wind- - SE
Pressure: 30.11 in 29.72 in -
Precipitation: 0.48 in    
Historical Graphs
 
 
Tabular Data for February 12, 2019
Time Temperature Dew Point Pressure Wind Wind Speed Wind Gust Humidity Rainfall Rate (Hourly) solar
00:04 21.8 °F 19.3 °F 30.10 in ENE 2.3 mph   90% 0.00 in 143.10 W/m2
00:09 21.7 °F 19.2 °F 30.10 in Calm     90% 0.00 in 143.10 W/m2
00:14 21.7 °F 19.2 °F 30.10 in Calm     90% 0.00 in 143.10 W/m2
00:19 21.6 °F 19.1 °F 30.10 in Calm     90% 0.00 in 143.10 W/m2
00:24 21.6 °F 19.1 °F 30.10 in NE 3.5 mph 1.3 mph 90% 0.00 in 143.10 W/m2
00:29 21.6 °F 19.1 °F 30.10 in ENE 2.3 mph 1.8 mph 90% 0.00 in 143.10 W/m2
00:34 21.5 °F 19.0 °F 30.11 in ENE 1.2 mph 0.5 mph 90% 0.00 in 143.10 W/m2
00:39 21.6 °F 19.1 °F 30.11 in NE 3.5 mph 1.8 mph 90% 0.00 in 143.10 W/m2
00:44 21.5 °F 19.0 °F 30.11 in NE 1.2 mph 0.3 mph 90% 0.00 in 143.10 W/m2
00:49 21.5 °F 19.0 °F 30.10 in ENE 2.3 mph 1.1 mph 90% 0.00 in 143.10 W/m2
00:54 21.5 °F 19.0 °F 30.11 in ENE 1.2 mph   90% 0.00 in 143.10 W/m2
00:59 21.5 °F 19.0 °F 30.10 in Calm     90% 0.00 in 143.10 W/m2
01:04 21.5 °F 19.0 °F 30.10 in Calm     90% 0.00 in 143.10 W/m2
01:09 21.5 °F 19.0 °F 30.10 in Calm     90% 0.00 in 143.10 W/m2
01:14 21.5 °F 19.0 °F 30.09 in ENE 2.3 mph 0.3 mph 90% 0.00 in 143.10 W/m2
01:19 21.5 °F 19.0 °F 30.09 in ENE 1.2 mph 0.8 mph 90% 0.00 in 143.10 W/m2
01:24 21.5 °F 19.3 °F 30.09 in ENE 2.3 mph 0.2 mph 91% 0.00 in 143.10 W/m2
01:29 21.4 °F 19.2 °F 30.08 in ENE 3.5 mph 1.1 mph 91% 0.00 in 143.10 W/m2
01:34 21.4 °F 19.2 °F 30.08 in Calm     91% 0.00 in 143.10 W/m2
01:39 21.4 °F 19.2 °F 30.08 in Calm     91% 0.00 in 143.10 W/m2
01:44 21.3 °F 19.1 °F 30.08 in Calm     91% 0.00 in 143.10 W/m2
01:49 21.3 °F 19.1 °F 30.08 in Calm     91% 0.00 in 143.10 W/m2
01:54 21.3 °F 19.1 °F 30.07 in Calm     91% 0.00 in 143.10 W/m2
01:59 21.4 °F 19.2 °F 30.07 in Calm     91% 0.00 in 143.10 W/m2
02:04 21.4 °F 19.2 °F 30.07 in Calm     91% 0.00 in 143.10 W/m2
02:09 21.4 °F 19.2 °F 30.06 in Calm     91% 0.00 in 143.10 W/m2
02:14 21.4 °F 19.2 °F 30.06 in Calm     91% 0.01 in 143.10 W/m2
02:19 21.4 °F 19.2 °F 30.05 in Calm     91% 0.01 in 143.10 W/m2
02:24 21.4 °F 19.2 °F 30.05 in North 2.3 mph 1.4 mph 91% 0.01 in 143.10 W/m2
02:29 21.4 °F 19.2 °F 30.05 in North 1.2 mph   91% 0.01 in 143.10 W/m2
02:34 21.3 °F 19.1 °F 30.04 in NE 1.2 mph   91% 0.01 in 143.10 W/m2
02:39 21.3 °F 19.1 °F 30.04 in NE 2.3 mph   91% 0.01 in 143.10 W/m2
02:44 21.3 °F 19.1 °F 30.03 in Calm     91% 0.01 in 143.10 W/m2
02:49 21.3 °F 19.1 °F 30.03 in NE 2.3 mph 1.2 mph 91% 0.01 in 143.10 W/m2
02:54 21.3 °F 19.1 °F 30.02 in North 1.2 mph 1.8 mph 91% 0.02 in 143.10 W/m2
02:59 21.3 °F 19.1 °F 30.02 in North 1.2 mph 0.2 mph 91% 0.02 in 143.10 W/m2
03:04 21.3 °F 18.8 °F 30.02 in North 2.0 mph 0.7 mph 90% 0.02 in 143.10 W/m2
03:09 21.2 °F 19.0 °F 30.02 in NNW 3.5 mph   91% 0.02 in 143.10 W/m2
03:14 21.2 °F 19.0 °F 30.02 in Calm     91% 0.01 in 143.10 W/m2
03:19 21.2 °F 19.0 °F 30.02 in NNW 2.3 mph 1.0 mph 91% 0.01 in 143.10 W/m2
03:24 21.1 °F 18.9 °F 30.01 in NE 1.2 mph   91% 0.01 in 143.10 W/m2
03:29 21.1 °F 18.6 °F 30.00 in NE 2.3 mph 1.1 mph 90% 0.01 in 143.10 W/m2
03:34 21.0 °F 18.5 °F 30.00 in NNE 2.3 mph 1.3 mph 90% 0.02 in 143.10 W/m2
03:39 21.0 °F 18.5 °F 30.00 in ENE 3.5 mph 1.0 mph 90% 0.02 in 143.10 W/m2
03:44 21.1 °F 18.9 °F 29.99 in NNE 3.5 mph 1.0 mph 91% 0.02 in 143.10 W/m2
03:49 21.0 °F 18.8 °F 29.99 in ENE 2.3 mph 0.7 mph 91% 0.02 in 143.10 W/m2
03:54 21.0 °F 18.5 °F 29.98 in ENE 2.3 mph 0.7 mph 90% 0.01 in 143.10 W/m2
03:59 20.9 °F 18.7 °F 29.98 in ENE 2.3 mph 0.6 mph 91% 0.01 in 143.10 W/m2
04:04 20.9 °F 18.7 °F 29.98 in NE 1.2 mph 0.1 mph 91% 0.01 in 143.10 W/m2
04:09 20.8 °F 18.6 °F 29.98 in NE 1.2 mph 0.8 mph 91% 0.01 in 143.10 W/m2
04:14 20.8 °F 18.6 °F 29.98 in NNE 2.3 mph 0.5 mph 91% 0.02 in 143.10 W/m2
04:19 20.9 °F 18.7 °F 29.97 in NNE 1.2 mph 0.6 mph 91% 0.02 in 143.10 W/m2
04:24 20.8 °F 18.6 °F 29.97 in NNE 1.2 mph 0.8 mph 91% 0.02 in 143.10 W/m2
04:29 20.8 °F 18.6 °F 29.97 in NNE 3.5 mph   91% 0.02 in 143.10 W/m2
04:34 20.9 °F 18.7 °F 29.97 in NNE 2.3 mph 1.2 mph 91% 0.01 in 143.10 W/m2
04:39 20.9 °F 18.7 °F 29.97 in NNE 2.3 mph 0.4 mph 91% 0.01 in 143.10 W/m2
04:44 20.9 °F 18.7 °F 29.97 in NNE 2.3 mph 0.1 mph 91% 0.02 in 143.10 W/m2
04:49 21.0 °F 18.8 °F 29.97 in Calm   0.2 mph 91% 0.02 in 143.10 W/m2
04:54 21.1 °F 18.9 °F 29.97 in North 2.3 mph 1.4 mph 91% 0.02 in 143.10 W/m2
04:59 21.1 °F 18.6 °F 29.97 in NNE 2.3 mph 0.4 mph 90% 0.03 in 143.10 W/m2
05:04 21.1 °F 18.6 °F 29.96 in North 3.5 mph 0.3 mph 90% 0.03 in 143.10 W/m2
05:09 21.1 °F 18.6 °F 29.96 in NNE 1.2 mph 1.2 mph 90% 0.03 in 143.10 W/m2
05:14 21.2 °F 18.7 °F 29.96 in Calm     90% 0.03 in 143.10 W/m2
05:19 21.1 °F 18.6 °F 29.95 in Calm     90% 0.03 in 143.10 W/m2
05:24 21.2 °F 18.7 °F 29.95 in Calm     90% 0.03 in 143.10 W/m2
05:29 21.2 °F 18.7 °F 29.95 in Calm     90% 0.03 in 143.10 W/m2
05:34 21.1 °F 18.6 °F 29.95 in NE 2.3 mph 0.8 mph 90% 0.04 in 143.10 W/m2
05:39 21.1 °F 18.6 °F 29.95 in North 2.3 mph   90% 0.04 in 143.10 W/m2
05:44 21.0 °F 18.3 °F 29.95 in North 5.8 mph 0.1 mph 89% 0.03 in 143.10 W/m2
05:49 20.9 °F 18.2 °F 29.95 in Calm     89% 0.04 in 143.10 W/m2
05:54 20.9 °F 18.4 °F 29.94 in NNE 2.3 mph   90% 0.04 in 143.10 W/m2
05:59 21.0 °F 18.5 °F 29.94 in NNE 2.3 mph 0.7 mph 90% 0.04 in 143.10 W/m2
06:04 21.0 °F 18.3 °F 29.94 in North 2.3 mph 0.4 mph 89% 0.04 in 143.10 W/m2
06:09 20.7 °F 18.0 °F 29.94 in Calm     89% 0.04 in 143.10 W/m2
06:14 20.4 °F 17.7 °F 29.93 in NNE 2.3 mph 0.1 mph 89% 0.04 in 143.10 W/m2
06:19 20.3 °F 17.6 °F 29.93 in NNE 5.0 mph 1.3 mph 89% 0.04 in 143.10 W/m2
06:24 20.2 °F 17.5 °F 29.93 in NNE 2.3 mph 1.3 mph 89% 0.05 in 143.10 W/m2
06:29 20.0 °F 17.3 °F 29.93 in NW 4.6 mph 0.9 mph 89% 0.05 in 143.10 W/m2
06:34 19.8 °F 17.1 °F 29.92 in NE 2.3 mph 1.0 mph 89% 0.05 in 143.10 W/m2
06:39 19.7 °F 17.0 °F 29.92 in North 3.0 mph 3.2 mph 89% 0.05 in 143.10 W/m2
06:44 19.7 °F 17.2 °F 29.92 in NNE 2.3 mph 0.5 mph 90% 0.06 in 143.10 W/m2
06:49 19.7 °F 17.2 °F 29.92 in Calm     90% 0.05 in 143.10 W/m2
06:54 19.8 °F 17.3 °F 29.91 in North 5.0 mph 1.7 mph 90% 0.05 in 143.10 W/m2
06:59 19.7 °F 17.2 °F 29.91 in NE 2.3 mph   90% 0.05 in 143.10 W/m2
07:04 19.7 °F 17.2 °F 29.91 in North 4.0 mph 1.7 mph 90% 0.05 in 143.10 W/m2
07:09 19.7 °F 17.2 °F 29.91 in NNE 2.3 mph 1.9 mph 90% 0.05 in 143.10 W/m2
07:14 19.8 °F 17.3 °F 29.91 in Calm   0.4 mph 90% 0.05 in 143.10 W/m2
07:19 19.7 °F 17.0 °F 29.91 in NNE 2.0 mph 1.2 mph 89% 0.05 in 143.10 W/m2
07:24 19.5 °F 16.8 °F 29.91 in NE 1.2 mph 0.2 mph 89% 0.05 in 143.10 W/m2
07:29 19.5 °F 16.8 °F 29.91 in West 2.3 mph 0.6 mph 89% 0.05 in 143.10 W/m2
07:34 19.5 °F 16.8 °F 29.91 in NE 2.3 mph 0.5 mph 89% 0.05 in 143.10 W/m2
07:39 19.6 °F 16.9 °F 29.91 in NE 2.0 mph 0.7 mph 89% 0.05 in 143.10 W/m2
07:44 19.5 °F 16.8 °F 29.91 in NNE 3.5 mph 0.8 mph 89% 0.05 in 143.10 W/m2
07:49 19.5 °F 16.8 °F 29.91 in Calm     89% 0.05 in 143.10 W/m2
07:54 19.6 °F 16.9 °F 29.91 in NNE 2.3 mph 1.8 mph 89% 0.06 in 143.10 W/m2
07:59 19.7 °F 17.0 °F 29.90 in East 3.5 mph 1.1 mph 89% 0.05 in 143.10 W/m2
08:04 19.6 °F 16.9 °F 29.90 in NNE 2.3 mph   89% 0.05 in 143.10 W/m2
08:09 19.5 °F 16.8 °F 29.90 in NNE 2.0 mph 0.3 mph 89% 0.06 in 143.10 W/m2
08:14 19.5 °F 16.8 °F 29.90 in NNE 2.3 mph 0.7 mph 89% 0.05 in 143.10 W/m2
08:19 19.4 °F 16.9 °F 29.89 in NNE 3.5 mph 1.1 mph 90% 0.06 in 143.10 W/m2
08:24 19.4 °F 16.9 °F 29.89 in NNE 4.6 mph 2.3 mph 90% 0.05 in 143.10 W/m2
08:29 19.4 °F 16.9 °F 29.89 in NNE 4.6 mph 1.8 mph 90% 0.05 in 143.10 W/m2
08:34 19.4 °F 16.9 °F 29.89 in NNE 5.0 mph 1.6 mph 90% 0.05 in 143.10 W/m2
08:39 19.4 °F 16.9 °F 29.88 in ENE 2.3 mph 0.2 mph 90% 0.05 in 143.10 W/m2
08:44 19.5 °F 17.0 °F 29.88 in NNE 3.5 mph 2.8 mph 90% 0.05 in 143.10 W/m2
08:49 19.5 °F 17.0 °F 29.88 in ENE 1.2 mph   90% 0.05 in 143.10 W/m2
08:54 19.4 °F 16.9 °F 29.88 in NNE 3.5 mph 1.2 mph 90% 0.04 in 143.10 W/m2
08:59 19.3 °F 16.8 °F 29.87 in WNW 3.5 mph 0.3 mph 90% 0.05 in 143.10 W/m2
09:04 19.3 °F 16.8 °F 29.87 in NE 3.5 mph 1.8 mph 90% 0.06 in 143.10 W/m2
09:09 19.4 °F 16.9 °F 29.87 in NE 2.3 mph 0.2 mph 90% 0.05 in 143.10 W/m2
09:14 19.4 °F 16.9 °F 29.87 in WNW 3.5 mph 0.4 mph 90% 0.05 in 143.10 W/m2
09:19 19.5 °F 17.0 °F 29.87 in North 3.5 mph 0.2 mph 90% 0.05 in 143.10 W/m2
09:24 19.7 °F 17.2 °F 29.87 in ENE 1.2 mph   90% 0.06 in 143.10 W/m2
09:29 19.8 °F 17.3 °F 29.87 in Calm     90% 0.06 in 143.10 W/m2
09:34 20.0 °F 17.5 °F 29.87 in ENE 1.2 mph 0.1 mph 90% 0.05 in 143.10 W/m2
09:39 20.1 °F 17.6 °F 29.87 in NNW 3.5 mph 0.8 mph 90% 0.06 in 143.10 W/m2
09:44 20.2 °F 17.5 °F 29.87 in North 3.5 mph   89% 0.05 in 143.10 W/m2
09:49 20.4 °F 17.7 °F 29.87 in North 2.3 mph 0.6 mph 89% 0.06 in 143.10 W/m2
09:54 20.6 °F 17.9 °F 29.87 in WNW 1.2 mph 0.9 mph 89% 0.06 in 143.10 W/m2
09:59 20.8 °F 18.1 °F 29.86 in North 3.5 mph   89% 0.06 in 143.10 W/m2
10:04 20.9 °F 17.9 °F 29.86 in Calm     88% 0.06 in 143.10 W/m2
10:09 21.2 °F 18.2 °F 29.86 in North 2.3 mph 0.4 mph 88% 0.06 in 143.10 W/m2
10:14 21.3 °F 18.3 °F 29.86 in NNW 2.3 mph 0.3 mph 88% 0.06 in 143.10 W/m2
10:19 21.4 °F 18.4 °F 29.86 in North 1.0 mph 0.4 mph 88% 0.06 in 143.10 W/m2
10:24 21.5 °F 18.5 °F 29.86 in NE 5.8 mph 0.8 mph 88% 0.06 in 143.10 W/m2
10:29 21.4 °F 18.1 °F 29.86 in NNE 2.0 mph   87% 0.06 in 143.10 W/m2
10:34 21.3 °F 18.3 °F 29.85 in WSW 1.2 mph   88% 0.06 in 143.10 W/m2
10:39 21.4 °F 18.4 °F 29.85 in NE 3.5 mph 0.4 mph 88% 0.06 in 143.10 W/m2
10:44 21.2 °F 17.9 °F 29.85 in ENE 2.0 mph 1.5 mph 87% 0.06 in 143.10 W/m2
10:49 21.2 °F 18.2 °F 29.85 in Calm     88% 0.06 in 143.10 W/m2
10:54 21.3 °F 18.3 °F 29.85 in Calm   0.3 mph 88% 0.06 in 143.10 W/m2
10:59 21.4 °F 18.4 °F 29.84 in NE 3.5 mph 0.5 mph 88% 0.05 in 143.10 W/m2
11:04 21.6 °F 18.6 °F 29.84 in NE 3.5 mph 2.2 mph 88% 0.05 in 143.10 W/m2
11:09 21.5 °F 18.2 °F 29.84 in NNE 5.8 mph 2.2 mph 87% 0.05 in 143.10 W/m2
11:14 21.3 °F 18.0 °F 29.84 in NE 2.3 mph 1.2 mph 87% 0.05 in 143.10 W/m2
11:19 21.2 °F 18.2 °F 29.83 in NNE 4.6 mph 0.1 mph 88% 0.04 in 143.10 W/m2
11:24 21.3 °F 18.3 °F 29.83 in North 2.3 mph 1.5 mph 88% 0.04 in 143.10 W/m2
11:29 21.5 °F 18.5 °F 29.83 in North 3.5 mph 1.1 mph 88% 0.04 in 143.10 W/m2
11:34 21.5 °F 18.2 °F 29.82 in ENE 2.3 mph 0.4 mph 87% 0.04 in 143.10 W/m2
11:39 21.4 °F 18.4 °F 29.82 in North 3.5 mph 0.7 mph 88% 0.03 in 143.10 W/m2
11:44 21.5 °F 18.5 °F 29.82 in NNE 2.3 mph 2.4 mph 88% 0.03 in 143.10 W/m2
11:49 21.6 °F 18.6 °F 29.82 in North 3.0 mph 1.2 mph 88% 0.02 in 143.10 W/m2
11:54 21.5 °F 18.2 °F 29.82 in ENE 6.9 mph 2.3 mph 87% 0.02 in 143.10 W/m2
11:59 21.3 °F 18.0 °F 29.81 in South 3.5 mph 1.6 mph 87% 0.02 in 143.10 W/m2
12:04 21.2 °F 17.9 °F 29.81 in NE 1.2 mph 0.2 mph 87% 0.01 in 143.10 W/m2
12:09 21.1 °F 17.8 °F 29.80 in NE 1.2 mph   87% 0.01 in 143.10 W/m2
12:14 21.1 °F 18.1 °F 29.80 in NE 2.3 mph 0.9 mph 88% 0.01 in 143.10 W/m2
12:19 21.1 °F 18.1 °F 29.80 in NNE 1.2 mph 0.4 mph 88% 0.02 in 143.10 W/m2
12:24 21.2 °F 18.2 °F 29.79 in NNE 1.2 mph 0.5 mph 88% 0.01 in 143.10 W/m2
12:29 21.4 °F 18.4 °F 29.79 in NNE 2.3 mph 1.5 mph 88% 0.01 in 143.10 W/m2
12:34 21.5 °F 18.5 °F 29.79 in NNW 1.2 mph   88% 0.01 in 143.10 W/m2
12:39 21.7 °F 18.4 °F 29.78 in West 3.5 mph 0.4 mph 87% 0.01 in 143.10 W/m2
12:44 21.7 °F 18.4 °F 29.78 in SSW 2.3 mph 0.4 mph 87% 0.01 in 143.10 W/m2
12:49 21.8 °F 18.5 °F 29.78 in East 3.5 mph 1.4 mph 87% 0.01 in 143.10 W/m2
12:54 21.8 °F 18.5 °F 29.77 in WNW 3.5 mph 0.9 mph 87% 0.01 in 143.10 W/m2
12:59 21.9 °F 18.6 °F 29.77 in NNE 1.2 mph 0.4 mph 87% 0.01 in 143.10 W/m2
13:04 21.9 °F 18.6 °F 29.77 in NNE 2.0 mph 1.2 mph 87% 0.01 in 143.10 W/m2
13:09 22.2 °F 18.9 °F 29.77 in North 1.2 mph 0.6 mph 87% 0.02 in 143.10 W/m2
13:14 22.3 °F 18.7 °F 29.76 in NNW 2.3 mph 0.7 mph 86% 0.02 in 143.10 W/m2
13:19 22.4 °F 19.1 °F 29.76 in NNE 1.2 mph   87% 0.01 in 143.10 W/m2
13:24 22.4 °F 19.1 °F 29.76 in North 2.3 mph 1.5 mph 87% 0.01 in 143.10 W/m2
13:29 22.5 °F 19.2 °F 29.76 in NNW 3.5 mph 1.2 mph 87% 0.01 in 143.10 W/m2
13:34 22.6 °F 19.0 °F 29.75 in NNE 2.3 mph 0.7 mph 86% 0.01 in 143.10 W/m2
13:39 22.7 °F 19.1 °F 29.75 in NE 2.3 mph 0.7 mph 86% 0.01 in 143.10 W/m2
13:44 22.6 °F 19.0 °F 29.74 in NE 3.5 mph 0.2 mph 86% 0.01 in 143.10 W/m2
13:49 22.5 °F 19.2 °F 29.74 in NE 1.2 mph   87% 0.01 in 143.10 W/m2
13:54 22.5 °F 19.2 °F 29.74 in NNW 2.3 mph   87% 0.01 in 143.10 W/m2
13:59 22.7 °F 19.4 °F 29.74 in WNW 1.0 mph 0.6 mph 87% 0.01 in 143.10 W/m2
14:04 22.7 °F 19.4 °F 29.73 in NNE 5.0 mph 1.8 mph 87% 0.01 in 143.10 W/m2
14:09 22.7 °F 19.4 °F 29.73 in NNW 3.5 mph 1.3 mph 87% 0.00 in 143.10 W/m2
14:14 22.8 °F 19.5 °F 29.73 in WNW 3.5 mph 1.4 mph 87% 0.00 in 143.10 W/m2
14:19 22.9 °F 19.6 °F 29.73 in Calm   0.6 mph 87% 0.00 in 143.10 W/m2
14:24 22.9 °F 19.6 °F 29.73 in West 2.3 mph   87% 0.00 in 143.10 W/m2
14:29 23.0 °F 19.7 °F 29.73 in NNE 2.0 mph 1.4 mph 87% 0.00 in 143.10 W/m2
14:34 23.1 °F 19.8 °F 29.72 in Calm     87% 0.00 in 143.10 W/m2
14:39 23.1 °F 19.8 °F 29.72 in Calm     87% 0.00 in 143.10 W/m2
14:44 23.3 °F 20.0 °F 29.72 in NNE 1.2 mph 1.6 mph 87% 0.00 in 143.10 W/m2
14:49 23.4 °F 20.1 °F 29.72 in WSW 3.5 mph 0.2 mph 87% 0.00 in 143.10 W/m2
14:54 23.5 °F 20.5 °F 29.72 in WNW 1.2 mph 0.3 mph 88% 0.00 in 143.10 W/m2
14:59 23.6 °F 20.6 °F 29.72 in NE 2.3 mph 0.3 mph 88% 0.01 in 143.10 W/m2
15:04 23.8 °F 20.8 °F 29.72 in SSW 2.3 mph 1.2 mph 88% 0.01 in 143.10 W/m2
15:09 23.8 °F 20.8 °F 29.72 in NW 3.5 mph 0.7 mph 88% 0.01 in 143.10 W/m2
15:14 23.8 °F 20.5 °F 29.72 in NNE 3.5 mph 1.4 mph 87% 0.01 in 143.10 W/m2
15:19 23.8 °F 20.5 °F 29.72 in NE 1.2 mph   87% 0.01 in 143.10 W/m2
15:24 23.7 °F 20.4 °F 29.72 in NNE 2.0 mph 0.3 mph 87% 0.01 in 143.10 W/m2
15:29 23.6 °F 20.3 °F 29.72 in NNE 3.0 mph 2.6 mph 87% 0.01 in 143.10 W/m2
15:34 23.5 °F 20.2 °F 29.72 in NNW 1.2 mph 0.9 mph 87% 0.01 in 143.10 W/m2
15:39 23.5 °F 20.2 °F 29.72 in NNE 1.2 mph 0.2 mph 87% 0.01 in 143.10 W/m2
15:44 23.5 °F 20.5 °F 29.72 in NW 6.9 mph 1.3 mph 88% 0.02 in 143.10 W/m2
15:49 23.5 °F 20.5 °F 29.73 in NE 3.5 mph 0.8 mph 88% 0.02 in 143.10 W/m2
15:54 23.4 °F 20.4 °F 29.73 in NW 4.6 mph 2.5 mph 88% 0.02 in 143.10 W/m2
15:59 23.3 °F 20.3 °F 29.73 in NNE 3.5 mph   88% 0.01 in 143.10 W/m2
16:04 23.3 °F 20.3 °F 29.73 in SW 2.0 mph 0.7 mph 88% 0.01 in 143.10 W/m2
16:09 23.3 °F 20.3 °F 29.73 in WNW 2.3 mph 1.1 mph 88% 0.01 in 143.10 W/m2
16:14 23.2 °F 20.4 °F 29.73 in NE 2.3 mph 0.2 mph 89% 0.01 in 143.10 W/m2
16:19 23.2 °F 20.4 °F 29.73 in NNE 2.3 mph 0.9 mph 89% 0.01 in 143.10 W/m2
16:24 23.3 °F 20.5 °F 29.73 in West 1.0 mph 0.1 mph 89% 0.02 in 143.10 W/m2
16:29 23.3 °F 20.5 °F 29.73 in Calm     89% 0.02 in 143.10 W/m2
16:34 23.4 °F 20.6 °F 29.74 in WNW 3.5 mph 2.0 mph 89% 0.02 in 143.10 W/m2
16:39 23.4 °F 20.6 °F 29.74 in NNE 2.3 mph 1.2 mph 89% 0.02 in 143.10 W/m2
16:44 23.4 °F 20.6 °F 29.74 in NE 2.3 mph   89% 0.01 in 143.10 W/m2
16:49 23.4 °F 20.6 °F 29.74 in WNW 2.0 mph 0.6 mph 89% 0.01 in 143.10 W/m2
16:54 23.4 °F 20.6 °F 29.75 in West 3.5 mph 0.3 mph 89% 0.01 in 143.10 W/m2
16:59 23.3 °F 20.5 °F 29.75 in West 3.0 mph 0.1 mph 89% 0.02 in 143.10 W/m2
17:04 23.4 °F 20.6 °F 29.75 in Calm     89% 0.02 in 143.10 W/m2
17:09 23.3 °F 20.5 °F 29.75 in WSW 3.5 mph 2.2 mph 89% 0.02 in 143.10 W/m2
17:14 23.3 °F 20.5 °F 29.75 in NNE 4.6 mph 0.6 mph 89% 0.02 in 143.10 W/m2
17:19 23.3 °F 20.5 °F 29.75 in North 3.5 mph 1.6 mph 89% 0.02 in 143.10 W/m2
17:24 23.3 °F 20.8 °F 29.75 in NW 1.2 mph 0.1 mph 90% 0.01 in 143.10 W/m2
17:29 23.3 °F 20.8 °F 29.76 in NE 3.5 mph   90% 0.01 in 143.10 W/m2
17:34 23.3 °F 20.8 °F 29.75 in NNE 2.3 mph 0.9 mph 90% 0.01 in 143.10 W/m2
17:39 23.1 °F 20.6 °F 29.76 in ENE 6.9 mph 3.5 mph 90% 0.02 in 143.10 W/m2
17:44 22.7 °F 20.2 °F 29.76 in SW 6.9 mph 2.5 mph 90% 0.02 in 143.10 W/m2
17:49 22.3 °F 19.6 °F 29.76 in ENE 2.3 mph 0.7 mph 89% 0.02 in 143.10 W/m2
17:54 22.0 °F 19.3 °F 29.76 in WNW 3.5 mph 0.7 mph 89% 0.02 in 143.10 W/m2
17:59 21.8 °F 19.1 °F 29.76 in North 9.2 mph 2.2 mph 89% 0.02 in 143.10 W/m2
18:04 21.6 °F 18.9 °F 29.77 in ENE 3.5 mph 0.6 mph 89% 0.02 in 143.10 W/m2
18:09 21.3 °F 18.6 °F 29.77 in SSW 5.8 mph 2.6 mph 89% 0.02 in 143.10 W/m2
18:14 21.2 °F 18.7 °F 29.77 in NNE 1.0 mph 1.0 mph 90% 0.02 in 143.10 W/m2
18:19 21.0 °F 18.5 °F 29.77 in NNE 9.2 mph 3.7 mph 90% 0.02 in 143.10 W/m2
18:24 20.9 °F 18.4 °F 29.77 in NE 3.5 mph 2.3 mph 90% 0.02 in 143.10 W/m2
18:29 20.9 °F 18.4 °F 29.77 in NE 4.0 mph 1.2 mph 90% 0.02 in 143.10 W/m2
18:34 20.8 °F 18.3 °F 29.78 in NNE 5.8 mph 2.7 mph 90% 0.03 in 143.10 W/m2
18:39 20.7 °F 18.0 °F 29.78 in SSW 3.5 mph 1.2 mph 89% 0.02 in 143.10 W/m2
18:44 20.5 °F 17.8 °F 29.78 in West 3.5 mph 2.4 mph 89% 0.02 in 143.10 W/m2
18:49 20.4 °F 17.7 °F 29.78 in SW 3.5 mph 1.3 mph 89% 0.02 in 143.10 W/m2
18:54 20.2 °F 17.5 °F 29.78 in WNW 3.5 mph 1.4 mph 89% 0.02 in 143.10 W/m2
18:59 20.1 °F 17.4 °F 29.78 in SE 5.8 mph 2.2 mph 89% 0.01 in 143.10 W/m2
19:04 20.0 °F 17.3 °F 29.79 in East 9.2 mph 3.2 mph 89% 0.01 in 143.10 W/m2
19:09 19.9 °F 17.2 °F 29.79 in NNE 4.0 mph 2.6 mph 89% 0.01 in 143.10 W/m2
19:14 19.8 °F 17.1 °F 29.79 in NE 3.5 mph 1.5 mph 89% 0.01 in 143.10 W/m2
19:19 19.8 °F 17.1 °F 29.79 in SE 5.8 mph 1.2 mph 89% 0.02 in 143.10 W/m2
19:24 19.8 °F 17.1 °F 29.79 in NE 6.9 mph 2.2 mph 89% 0.02 in 143.10 W/m2
19:29 19.7 °F 17.0 °F 29.79 in NNE 2.3 mph 1.5 mph 89% 0.02 in 143.10 W/m2
19:34 19.7 °F 17.0 °F 29.79 in NNE 6.9 mph 2.0 mph 89% 0.01 in 143.10 W/m2
19:39 19.6 °F 16.9 °F 29.79 in North 9.2 mph 3.8 mph 89% 0.01 in 143.10 W/m2
19:44 19.5 °F 16.5 °F 29.79 in NE 4.6 mph 2.7 mph 88% 0.01 in 143.10 W/m2
19:49 19.5 °F 16.5 °F 29.79 in SW 3.5 mph 0.7 mph 88% 0.01 in 143.10 W/m2
19:54 19.5 °F 16.5 °F 29.79 in West 9.2 mph 2.9 mph 88% 0.01 in 143.10 W/m2
19:59 19.4 °F 16.4 °F 29.79 in NNE 5.8 mph 0.5 mph 88% 0.01 in 143.10 W/m2
20:04 19.4 °F 16.4 °F 29.80 in NE 5.8 mph 1.6 mph 88% 0.01 in 143.10 W/m2
20:09 19.3 °F 16.3 °F 29.80 in West 2.3 mph 0.1 mph 88% 0.01 in 143.10 W/m2
20:14 19.4 °F 16.4 °F 29.80 in North 6.9 mph 2.0 mph 88% 0.01 in 143.10 W/m2
20:19 19.3 °F 16.3 °F 29.80 in NNE 2.3 mph 0.1 mph 88% 0.00 in 143.10 W/m2
20:24 19.3 °F 16.3 °F 29.80 in NW 3.5 mph 3.1 mph 88% 0.00 in 143.10 W/m2
20:29 19.3 °F 16.3 °F 29.80 in NNW 3.5 mph 1.4 mph 88% 0.00 in 143.10 W/m2
20:34 19.3 °F 16.3 °F 29.80 in SW 6.9 mph 3.7 mph 88% 0.00 in 143.10 W/m2
20:39 19.3 °F 16.1 °F 29.80 in WNW 9.2 mph 3.4 mph 87% 0.00 in 143.10 W/m2
20:44 19.3 °F 16.1 °F 29.80 in West 3.5 mph 2.5 mph 87% 0.00 in 143.10 W/m2
20:49 19.3 °F 16.1 °F 29.80 in NE 4.6 mph 2.9 mph 87% 0.00 in 143.10 W/m2
20:54 19.2 °F 16.0 °F 29.80 in West 6.9 mph 1.6 mph 87% 0.00 in 143.10 W/m2
20:59 19.2 °F 16.0 °F 29.81 in NE 4.6 mph 0.9 mph 87% 0.00 in 143.10 W/m2
21:04 19.2 °F 16.0 °F 29.81 in WNW 6.9 mph 2.7 mph 87% 0.00 in 143.10 W/m2
21:09 19.2 °F 16.0 °F 29.82 in NNE 6.0 mph 1.9 mph 87% 0.00 in 143.10 W/m2
21:14 19.2 °F 16.0 °F 29.82 in NE 3.5 mph 2.5 mph 87% 0.00 in 143.10 W/m2
21:19 19.2 °F 16.0 °F 29.82 in NE 3.5 mph 2.6 mph 87% 0.00 in 143.10 W/m2
21:24 19.2 °F 16.0 °F 29.82 in West 3.5 mph 3.7 mph 87% 0.00 in 143.10 W/m2
21:29 19.2 °F 16.0 °F 29.82 in SW 3.5 mph 0.1 mph 87% 0.00 in 143.10 W/m2
21:34 19.2 °F 16.0 °F 29.82 in NE 4.6 mph 1.0 mph 87% 0.00 in 143.10 W/m2
21:39 19.2 °F 16.0 °F 29.82 in West 8.1 mph 4.6 mph 87% 0.00 in 143.10 W/m2
21:44 19.1 °F 15.9 °F 29.83 in North 4.6 mph 1.6 mph 87% 0.00 in 143.10 W/m2
21:49 19.1 °F 15.9 °F 29.83 in WSW 4.6 mph 1.9 mph 87% 0.00 in 143.10 W/m2
21:54 19.1 °F 15.9 °F 29.83 in SW 4.6 mph 2.4 mph 87% 0.00 in 143.10 W/m2
21:59 19.1 °F 15.9 °F 29.83 in SE 3.5 mph 1.8 mph 87% 0.00 in 143.10 W/m2
22:04 19.0 °F 15.8 °F 29.83 in WSW 3.5 mph 1.5 mph 87% 0.00 in 143.10 W/m2
22:09 19.0 °F 15.8 °F 29.83 in SW 2.3 mph   87% 0.00 in 143.10 W/m2
22:14 19.0 °F 15.8 °F 29.83 in West 4.6 mph 1.1 mph 87% 0.00 in 143.10 W/m2
22:19 19.0 °F 15.8 °F 29.83 in WNW 4.0 mph 2.7 mph 87% 0.00 in 143.10 W/m2
22:24 19.0 °F 15.8 °F 29.83 in NW 5.8 mph 2.0 mph 87% 0.00 in 143.10 W/m2
22:29 19.0 °F 15.8 °F 29.83 in NE 3.5 mph 1.1 mph 87% 0.00 in 143.10 W/m2
22:34 19.0 °F 15.8 °F 29.83 in North 6.0 mph 3.1 mph 87% 0.00 in 143.10 W/m2
22:39 19.0 °F 15.8 °F 29.83 in NNE 4.0 mph 2.4 mph 87% 0.00 in 143.10 W/m2
22:44 18.9 °F 15.7 °F 29.83 in WNW 2.3 mph 0.6 mph 87% 0.00 in 143.10 W/m2
22:49 18.9 °F 15.7 °F 29.84 in West 6.0 mph 0.9 mph 87% 0.00 in 143.10 W/m2
22:54 18.9 °F 15.9 °F 29.84 in East 3.5 mph 0.7 mph 88% 0.00 in 143.10 W/m2
22:59 19.0 °F 16.0 °F 29.84 in NNE 3.5 mph 0.4 mph 88% 0.00 in 143.10 W/m2
23:04 19.0 °F 16.0 °F 29.84 in WNW 4.0 mph 1.1 mph 88% 0.00 in 143.10 W/m2
23:09 19.0 °F 16.0 °F 29.83 in SW 8.1 mph 3.2 mph 88% 0.00 in 143.10 W/m2
23:14 19.0 °F 16.0 °F 29.84 in NE 4.6 mph 1.4 mph 88% 0.00 in 143.10 W/m2
23:19 18.9 °F 15.9 °F 29.84 in WNW 3.0 mph 1.6 mph 88% 0.00 in 143.10 W/m2
23:24 19.0 °F 15.8 °F 29.84 in SW 4.6 mph 2.7 mph 87% 0.00 in 143.10 W/m2
23:29 18.9 °F 15.7 °F 29.84 in WSW 3.5 mph 0.5 mph 87% 0.00 in 143.10 W/m2
23:34 18.8 °F 15.6 °F 29.84 in NW 1.2 mph 1.3 mph 87% 0.00 in 143.10 W/m2
23:39 18.8 °F 15.6 °F 29.84 in WNW 4.6 mph 1.5 mph 87% 0.00 in 143.10 W/m2
23:44 18.7 °F 15.5 °F 29.84 in NNE 3.5 mph   87% 0.00 in 143.10 W/m2
23:49 18.6 °F 15.4 °F 29.84 in NNW 5.0 mph 1.5 mph 87% 0.00 in 143.10 W/m2
23:54 18.6 °F 15.4 °F 29.84 in NE 1.2 mph 0.3 mph 87% 0.00 in 143.10 W/m2
23:59 18.5 °F 15.3 °F 29.84 in West 3.5 mph 0.3 mph 87% 0.00 in 143.10 W/m2
Winter, Wisconsin USA
Compliments of Weather Underground - 4 mb